sensor_id;sensor_type;location;lat;lon;timestamp;P1;durP1;ratioP1;P2;durP2;ratioP2
3523;SDS011;1776;53.330;11.498;2023-02-28T00:00:24;3.30;;;2.10;;
3523;SDS011;1776;53.330;11.498;2023-02-28T00:02:50;4.03;;;2.70;;
3523;SDS011;1776;53.330;11.498;2023-02-28T00:05:17;3.60;;;2.27;;
3523;SDS011;1776;53.330;11.498;2023-02-28T00:07:44;4.97;;;3.27;;
3523;SDS011;1776;53.330;11.498;2023-02-28T00:10:10;3.87;;;2.40;;
3523;SDS011;1776;53.330;11.498;2023-02-28T00:12:38;2.30;;;2.10;;
3523;SDS011;1776;53.330;11.498;2023-02-28T00:15:07;2.53;;;2.00;;
3523;SDS011;1776;53.330;11.498;2023-02-28T00:17:34;2.17;;;1.97;;
3523;SDS011;1776;53.330;11.498;2023-02-28T00:19:59;5.60;;;2.73;;
3523;SDS011;1776;53.330;11.498;2023-02-28T00:22:40;4.20;;;2.30;;
3523;SDS011;1776;53.330;11.498;2023-02-28T00:25:07;8.17;;;3.80;;
3523;SDS011;1776;53.330;11.498;2023-02-28T00:27:35;11.83;;;3.30;;
3523;SDS011;1776;53.330;11.498;2023-02-28T00:30:01;3.97;;;3.57;;
3523;SDS011;1776;53.330;11.498;2023-02-28T00:32:27;7.50;;;3.90;;
3523;SDS011;1776;53.330;11.498;2023-02-28T00:34:53;6.00;;;3.60;;
3523;SDS011;1776;53.330;11.498;2023-02-28T00:37:18;9.27;;;4.13;;
3523;SDS011;1776;53.330;11.498;2023-02-28T00:39:43;8.07;;;4.40;;
3523;SDS011;1776;53.330;11.498;2023-02-28T00:42:08;9.37;;;4.20;;
3523;SDS011;1776;53.330;11.498;2023-02-28T00:44:34;9.80;;;4.40;;
3523;SDS011;1776;53.330;11.498;2023-02-28T00:46:59;7.50;;;4.40;;
3523;SDS011;1776;53.330;11.498;2023-02-28T00:49:27;7.70;;;5.27;;
3523;SDS011;1776;53.330;11.498;2023-02-28T00:51:53;7.77;;;4.40;;
3523;SDS011;1776;53.330;11.498;2023-02-28T00:54:20;6.87;;;4.67;;
3523;SDS011;1776;53.330;11.498;2023-02-28T00:56:46;9.57;;;4.67;;
3523;SDS011;1776;53.330;11.498;2023-02-28T00:59:13;6.50;;;4.53;;
3523;SDS011;1776;53.330;11.498;2023-02-28T01:01:39;8.10;;;4.07;;
3523;SDS011;1776;53.330;11.498;2023-02-28T01:04:04;6.83;;;3.33;;
3523;SDS011;1776;53.330;11.498;2023-02-28T01:06:30;10.30;;;3.77;;
3523;SDS011;1776;53.330;11.498;2023-02-28T01:08:56;6.70;;;3.53;;
3523;SDS011;1776;53.330;11.498;2023-02-28T01:11:21;10.20;;;3.33;;
3523;SDS011;1776;53.330;11.498;2023-02-28T01:13:46;7.93;;;2.50;;
3523;SDS011;1776;53.330;11.498;2023-02-28T01:16:12;5.73;;;3.27;;
3523;SDS011;1776;53.330;11.498;2023-02-28T01:18:38;4.63;;;2.70;;
3523;SDS011;1776;53.330;11.498;2023-02-28T01:21:07;5.70;;;2.93;;
3523;SDS011;1776;53.330;11.498;2023-02-28T01:23:34;5.20;;;2.22;;
3523;SDS011;1776;53.330;11.498;2023-02-28T01:28:38;9.23;;;2.15;;
3523;SDS011;1776;53.330;11.498;2023-02-28T01:31:04;5.60;;;2.40;;
3523;SDS011;1776;53.330;11.498;2023-02-28T01:33:29;4.50;;;2.67;;
3523;SDS011;1776;53.330;11.498;2023-02-28T01:35:58;3.10;;;2.23;;
3523;SDS011;1776;53.330;11.498;2023-02-28T01:38:24;4.32;;;2.30;;
3523;SDS011;1776;53.330;11.498;2023-02-28T01:40:51;5.63;;;2.60;;
3523;SDS011;1776;53.330;11.498;2023-02-28T01:46:08;3.28;;;2.00;;
3523;SDS011;1776;53.330;11.498;2023-02-28T01:48:35;5.23;;;2.30;;
3523;SDS011;1776;53.330;11.498;2023-02-28T01:51:11;5.35;;;2.25;;
3523;SDS011;1776;53.330;11.498;2023-02-28T01:53:46;3.80;;;2.10;;
3523;SDS011;1776;53.330;11.498;2023-02-28T01:56:17;2.00;;;1.67;;
3523;SDS011;1776;53.330;11.498;2023-02-28T01:58:46;3.73;;;3.17;;
3523;SDS011;1776;53.330;11.498;2023-02-28T02:01:12;3.57;;;1.90;;
3523;SDS011;1776;53.330;11.498;2023-02-28T02:03:46;7.10;;;2.30;;
3523;SDS011;1776;53.330;11.498;2023-02-28T02:06:20;5.55;;;1.88;;
3523;SDS011;1776;53.330;11.498;2023-02-28T02:08:47;5.47;;;2.27;;
3523;SDS011;1776;53.330;11.498;2023-02-28T02:11:12;3.70;;;2.00;;
3523;SDS011;1776;53.330;11.498;2023-02-28T02:19:26;3.88;;;1.83;;
3523;SDS011;1776;53.330;11.498;2023-02-28T02:25:15;2.47;;;1.50;;
3523;SDS011;1776;53.330;11.498;2023-02-28T02:39:31;2.90;;;1.67;;
3523;SDS011;1776;53.330;11.498;2023-02-28T02:41:51;2.17;;;1.85;;
3523;SDS011;1776;53.330;11.498;2023-02-28T02:44:36;3.92;;;1.77;;
3523;SDS011;1776;53.330;11.498;2023-02-28T02:47:19;2.17;;;1.63;;
3523;SDS011;1776;53.330;11.498;2023-02-28T02:49:51;4.22;;;2.00;;
3523;SDS011;1776;53.330;11.498;2023-02-28T02:52:22;2.75;;;1.90;;
3523;SDS011;1776;53.330;11.498;2023-02-28T02:54:50;3.80;;;1.73;;
3523;SDS011;1776;53.330;11.498;2023-02-28T02:57:27;2.60;;;1.80;;
3523;SDS011;1776;53.330;11.498;2023-02-28T02:59:58;2.72;;;1.88;;
3523;SDS011;1776;53.330;11.498;2023-02-28T03:02:26;2.15;;;1.50;;
3523;SDS011;1776;53.330;11.498;2023-02-28T03:04:59;2.08;;;1.52;;
3523;SDS011;1776;53.330;11.498;2023-02-28T03:07:27;2.40;;;1.75;;
3523;SDS011;1776;53.330;11.498;2023-02-28T03:09:53;6.37;;;1.80;;
3523;SDS011;1776;53.330;11.498;2023-02-28T03:12:21;2.90;;;1.63;;
3523;SDS011;1776;53.330;11.498;2023-02-28T03:14:55;2.83;;;1.38;;
3523;SDS011;1776;53.330;11.498;2023-02-28T03:20:17;3.00;;;2.15;;
3523;SDS011;1776;53.330;11.498;2023-02-28T03:30:33;2.13;;;1.50;;
3523;SDS011;1776;53.330;11.498;2023-02-28T03:35:41;6.18;;;2.05;;
3523;SDS011;1776;53.330;11.498;2023-02-28T03:38:16;3.05;;;1.60;;
3523;SDS011;1776;53.330;11.498;2023-02-28T03:40:48;2.22;;;1.60;;
3523;SDS011;1776;53.330;11.498;2023-02-28T03:43:18;4.50;;;1.75;;
3523;SDS011;1776;53.330;11.498;2023-02-28T03:45:50;2.17;;;1.88;;
3523;SDS011;1776;53.330;11.498;2023-02-28T03:48:22;2.30;;;1.50;;
3523;SDS011;1776;53.330;11.498;2023-02-28T03:50:54;3.25;;;1.73;;
3523;SDS011;1776;53.330;11.498;2023-02-28T03:53:30;3.80;;;2.05;;
3523;SDS011;1776;53.330;11.498;2023-02-28T04:01:35;9.07;;;4.40;;
3523;SDS011;1776;53.330;11.498;2023-02-28T04:04:06;10.95;;;7.10;;
3523;SDS011;1776;53.330;11.498;2023-02-28T04:06:33;10.90;;;5.50;;
3523;SDS011;1776;53.330;11.498;2023-02-28T04:08:59;8.30;;;5.20;;
3523;SDS011;1776;53.330;11.498;2023-02-28T04:11:32;6.47;;;4.20;;
3523;SDS011;1776;53.330;11.498;2023-02-28T04:13:59;10.30;;;4.75;;
3523;SDS011;1776;53.330;11.498;2023-02-28T04:16:24;6.97;;;4.37;;
3523;SDS011;1776;53.330;11.498;2023-02-28T04:18:50;6.17;;;4.10;;
3523;SDS011;1776;53.330;11.498;2023-02-28T04:21:15;7.73;;;4.10;;
3523;SDS011;1776;53.330;11.498;2023-02-28T04:23:40;5.73;;;4.10;;
3523;SDS011;1776;53.330;11.498;2023-02-28T04:26:06;6.07;;;3.20;;
3523;SDS011;1776;53.330;11.498;2023-02-28T04:28:31;4.30;;;2.40;;
3523;SDS011;1776;53.330;11.498;2023-02-28T04:30:58;2.85;;;2.30;;
3523;SDS011;1776;53.330;11.498;2023-02-28T04:33:28;6.53;;;3.13;;
3523;SDS011;1776;53.330;11.498;2023-02-28T04:36:01;4.30;;;2.92;;
3523;SDS011;1776;53.330;11.498;2023-02-28T04:38:29;6.03;;;3.40;;
3523;SDS011;1776;53.330;11.498;2023-02-28T04:40:57;5.05;;;3.33;;
3523;SDS011;1776;53.330;11.498;2023-02-28T04:43:23;6.85;;;3.53;;
3523;SDS011;1776;53.330;11.498;2023-02-28T04:45:50;4.03;;;3.17;;
3523;SDS011;1776;53.330;11.498;2023-02-28T04:48:15;5.23;;;3.10;;
3523;SDS011;1776;53.330;11.498;2023-02-28T04:50:40;5.23;;;3.23;;
3523;SDS011;1776;53.330;11.498;2023-02-28T04:53:05;3.97;;;2.90;;
3523;SDS011;1776;53.330;11.498;2023-02-28T04:55:31;5.70;;;2.73;;
3523;SDS011;1776;53.330;11.498;2023-02-28T04:57:56;3.53;;;2.00;;
3523;SDS011;1776;53.330;11.498;2023-02-28T05:00:21;9.40;;;2.50;;
3523;SDS011;1776;53.330;11.498;2023-02-28T05:02:46;3.53;;;2.50;;
3523;SDS011;1776;53.330;11.498;2023-02-28T05:05:12;3.20;;;2.10;;
3523;SDS011;1776;53.330;11.498;2023-02-28T05:10:15;2.65;;;2.05;;
3523;SDS011;1776;53.330;11.498;2023-02-28T05:12:40;4.30;;;2.38;;
3523;SDS011;1776;53.330;11.498;2023-02-28T05:15:06;2.37;;;2.10;;
3523;SDS011;1776;53.330;11.498;2023-02-28T05:17:31;3.80;;;2.93;;
3523;SDS011;1776;53.330;11.498;2023-02-28T05:19:57;1.90;;;1.80;;
3523;SDS011;1776;53.330;11.498;2023-02-28T05:22:23;2.80;;;2.27;;
3523;SDS011;1776;53.330;11.498;2023-02-28T05:24:48;3.77;;;2.43;;
3523;SDS011;1776;53.330;11.498;2023-02-28T05:27:13;3.10;;;2.03;;
3523;SDS011;1776;53.330;11.498;2023-02-28T05:29:38;3.37;;;2.37;;
3523;SDS011;1776;53.330;11.498;2023-02-28T05:32:10;5.05;;;2.03;;
3523;SDS011;1776;53.330;11.498;2023-02-28T05:34:37;4.25;;;2.08;;
3523;SDS011;1776;53.330;11.498;2023-02-28T05:37:02;8.23;;;2.85;;
3523;SDS011;1776;53.330;11.498;2023-02-28T05:39:28;6.10;;;3.00;;
3523;SDS011;1776;53.330;11.498;2023-02-28T05:41:53;3.17;;;2.73;;
3523;SDS011;1776;53.330;11.498;2023-02-28T05:44:18;4.73;;;2.33;;
3523;SDS011;1776;53.330;11.498;2023-02-28T05:46:44;4.53;;;2.33;;
3523;SDS011;1776;53.330;11.498;2023-02-28T05:49:09;8.77;;;3.00;;
3523;SDS011;1776;53.330;11.498;2023-02-28T05:51:34;3.83;;;2.57;;
3523;SDS011;1776;53.330;11.498;2023-02-28T05:54:01;6.68;;;3.00;;
3523;SDS011;1776;53.330;11.498;2023-02-28T05:56:27;5.00;;;2.80;;
3523;SDS011;1776;53.330;11.498;2023-02-28T05:58:53;5.00;;;3.37;;
3523;SDS011;1776;53.330;11.498;2023-02-28T06:01:20;5.17;;;3.30;;
3523;SDS011;1776;53.330;11.498;2023-02-28T06:03:47;4.38;;;3.95;;
3523;SDS011;1776;53.330;11.498;2023-02-28T06:06:13;6.30;;;2.60;;
3523;SDS011;1776;53.330;11.498;2023-02-28T06:08:38;5.10;;;3.03;;
3523;SDS011;1776;53.330;11.498;2023-02-28T06:11:03;7.13;;;4.00;;
3523;SDS011;1776;53.330;11.498;2023-02-28T06:13:29;2.40;;;2.10;;
3523;SDS011;1776;53.330;11.498;2023-02-28T06:15:54;6.80;;;3.33;;
3523;SDS011;1776;53.330;11.498;2023-02-28T06:18:20;8.23;;;4.80;;
3523;SDS011;1776;53.330;11.498;2023-02-28T06:20:51;7.23;;;4.20;;
3523;SDS011;1776;53.330;11.498;2023-02-28T06:23:19;7.93;;;5.97;;
3523;SDS011;1776;53.330;11.498;2023-02-28T06:25:45;9.47;;;6.60;;
3523;SDS011;1776;53.330;11.498;2023-02-28T06:28:10;6.43;;;5.23;;
3523;SDS011;1776;53.330;11.498;2023-02-28T06:30:36;13.00;;;5.00;;
3523;SDS011;1776;53.330;11.498;2023-02-28T06:33:02;7.80;;;4.80;;
3523;SDS011;1776;53.330;11.498;2023-02-28T06:35:28;9.27;;;4.60;;
3523;SDS011;1776;53.330;11.498;2023-02-28T06:37:53;7.20;;;4.70;;
3523;SDS011;1776;53.330;11.498;2023-02-28T06:40:18;8.40;;;4.43;;
3523;SDS011;1776;53.330;11.498;2023-02-28T06:42:43;7.43;;;4.60;;
3523;SDS011;1776;53.330;11.498;2023-02-28T06:45:09;8.17;;;4.40;;
3523;SDS011;1776;53.330;11.498;2023-02-28T06:47:36;6.38;;;4.50;;
3523;SDS011;1776;53.330;11.498;2023-02-28T06:50:03;6.25;;;3.47;;
3523;SDS011;1776;53.330;11.498;2023-02-28T06:52:29;7.93;;;3.80;;
3523;SDS011;1776;53.330;11.498;2023-02-28T06:54:54;6.87;;;3.77;;
3523;SDS011;1776;53.330;11.498;2023-02-28T06:57:25;7.50;;;5.30;;
3523;SDS011;1776;53.330;11.498;2023-02-28T06:59:55;10.13;;;6.15;;
3523;SDS011;1776;53.330;11.498;2023-02-28T07:02:22;15.60;;;7.13;;
3523;SDS011;1776;53.330;11.498;2023-02-28T07:04:47;6.70;;;5.70;;
3523;SDS011;1776;53.330;11.498;2023-02-28T07:07:12;12.57;;;6.17;;
3523;SDS011;1776;53.330;11.498;2023-02-28T07:09:38;16.67;;;7.43;;
3523;SDS011;1776;53.330;11.498;2023-02-28T07:12:03;10.73;;;6.70;;
3523;SDS011;1776;53.330;11.498;2023-02-28T07:14:28;10.00;;;5.40;;
3523;SDS011;1776;53.330;11.498;2023-02-28T07:16:54;16.23;;;5.93;;
3523;SDS011;1776;53.330;11.498;2023-02-28T07:19:19;8.33;;;6.10;;
3523;SDS011;1776;53.330;11.498;2023-02-28T07:21:45;7.00;;;5.47;;
3523;SDS011;1776;53.330;11.498;2023-02-28T07:24:10;10.87;;;5.37;;
3523;SDS011;1776;53.330;11.498;2023-02-28T07:26:35;11.23;;;5.30;;
3523;SDS011;1776;53.330;11.498;2023-02-28T07:29:00;7.90;;;5.70;;
3523;SDS011;1776;53.330;11.498;2023-02-28T07:31:27;9.98;;;5.45;;
3523;SDS011;1776;53.330;11.498;2023-02-28T07:33:52;8.27;;;6.33;;
3523;SDS011;1776;53.330;11.498;2023-02-28T07:36:18;13.18;;;7.10;;
3523;SDS011;1776;53.330;11.498;2023-02-28T07:38:45;12.07;;;7.73;;
3523;SDS011;1776;53.330;11.498;2023-02-28T07:41:13;10.88;;;8.20;;
3523;SDS011;1776;53.330;11.498;2023-02-28T07:43:39;13.85;;;8.75;;
3523;SDS011;1776;53.330;11.498;2023-02-28T07:46:05;19.03;;;8.90;;
3523;SDS011;1776;53.330;11.498;2023-02-28T07:48:35;17.40;;;10.63;;
3523;SDS011;1776;53.330;11.498;2023-02-28T07:51:00;16.77;;;10.97;;
3523;SDS011;1776;53.330;11.498;2023-02-28T07:53:26;26.35;;;10.43;;
3523;SDS011;1776;53.330;11.498;2023-02-28T07:55:59;23.63;;;12.03;;
3523;SDS011;1776;53.330;11.498;2023-02-28T07:58:25;21.27;;;13.33;;
3523;SDS011;1776;53.330;11.498;2023-02-28T08:00:51;18.83;;;11.80;;
3523;SDS011;1776;53.330;11.498;2023-02-28T08:03:17;19.90;;;10.13;;
3523;SDS011;1776;53.330;11.498;2023-02-28T08:05:43;18.50;;;10.20;;
3523;SDS011;1776;53.330;11.498;2023-02-28T08:08:09;17.03;;;9.70;;
3523;SDS011;1776;53.330;11.498;2023-02-28T08:10:34;12.93;;;9.63;;
3523;SDS011;1776;53.330;11.498;2023-02-28T08:13:00;13.80;;;9.40;;
3523;SDS011;1776;53.330;11.498;2023-02-28T08:15:25;15.03;;;8.90;;
3523;SDS011;1776;53.330;11.498;2023-02-28T08:17:51;14.40;;;10.10;;
3523;SDS011;1776;53.330;11.498;2023-02-28T08:20:16;17.10;;;9.67;;
3523;SDS011;1776;53.330;11.498;2023-02-28T08:22:42;15.03;;;11.07;;
3523;SDS011;1776;53.330;11.498;2023-02-28T08:25:07;12.00;;;10.17;;
3523;SDS011;1776;53.330;11.498;2023-02-28T08:27:33;41.40;;;31.47;;
3523;SDS011;1776;53.330;11.498;2023-02-28T08:29:59;25.10;;;20.10;;
3523;SDS011;1776;53.330;11.498;2023-02-28T08:32:24;12.87;;;10.07;;
3523;SDS011;1776;53.330;11.498;2023-02-28T08:34:49;7.57;;;6.80;;
3523;SDS011;1776;53.330;11.498;2023-02-28T08:37:15;8.87;;;7.30;;
3523;SDS011;1776;53.330;11.498;2023-02-28T08:39:40;9.43;;;6.90;;
3523;SDS011;1776;53.330;11.498;2023-02-28T08:42:05;11.30;;;4.20;;
3523;SDS011;1776;53.330;11.498;2023-02-28T08:44:31;5.77;;;4.47;;
3523;SDS011;1776;53.330;11.498;2023-02-28T08:46:56;8.03;;;3.70;;
3523;SDS011;1776;53.330;11.498;2023-02-28T08:49:21;4.53;;;2.90;;
3523;SDS011;1776;53.330;11.498;2023-02-28T08:51:46;5.33;;;3.17;;
3523;SDS011;1776;53.330;11.498;2023-02-28T08:54:12;5.17;;;3.70;;
3523;SDS011;1776;53.330;11.498;2023-02-28T08:56:37;6.23;;;3.07;;
3523;SDS011;1776;53.330;11.498;2023-02-28T08:59:03;6.80;;;3.67;;
3523;SDS011;1776;53.330;11.498;2023-02-28T09:01:29;5.37;;;3.73;;
3523;SDS011;1776;53.330;11.498;2023-02-28T09:03:55;2.80;;;2.40;;
3523;SDS011;1776;53.330;11.498;2023-02-28T09:06:22;3.33;;;3.03;;
3523;SDS011;1776;53.330;11.498;2023-02-28T09:08:49;2.63;;;1.57;;
3523;SDS011;1776;53.330;11.498;2023-02-28T09:11:14;4.50;;;1.60;;
3523;SDS011;1776;53.330;11.498;2023-02-28T09:13:40;5.20;;;1.60;;
3523;SDS011;1776;53.330;11.498;2023-02-28T09:16:07;2.37;;;1.67;;
3523;SDS011;1776;53.330;11.498;2023-02-28T09:18:35;3.10;;;1.43;;
3523;SDS011;1776;53.330;11.498;2023-02-28T09:21:02;4.27;;;2.03;;
3523;SDS011;1776;53.330;11.498;2023-02-28T09:23:29;3.13;;;1.77;;
3523;SDS011;1776;53.330;11.498;2023-02-28T09:25:54;2.70;;;1.70;;
3523;SDS011;1776;53.330;11.498;2023-02-28T09:28:20;2.83;;;1.00;;
3523;SDS011;1776;53.330;11.498;2023-02-28T09:30:47;3.20;;;1.73;;
3523;SDS011;1776;53.330;11.498;2023-02-28T09:33:14;3.20;;;1.80;;
3523;SDS011;1776;53.330;11.498;2023-02-28T09:35:41;1.50;;;1.30;;
3523;SDS011;1776;53.330;11.498;2023-02-28T09:38:07;1.77;;;1.57;;
3523;SDS011;1776;53.330;11.498;2023-02-28T09:40:35;2.43;;;2.20;;
3523;SDS011;1776;53.330;11.498;2023-02-28T09:43:21;2.90;;;1.93;;
3523;SDS011;1776;53.330;11.498;2023-02-28T09:46:02;2.40;;;1.70;;
3523;SDS011;1776;53.330;11.498;2023-02-28T09:48:37;3.27;;;2.10;;
3523;SDS011;1776;53.330;11.498;2023-02-28T09:51:16;2.77;;;1.37;;
3523;SDS011;1776;53.330;11.498;2023-02-28T09:53:51;2.93;;;1.50;;
3523;SDS011;1776;53.330;11.498;2023-02-28T09:56:22;2.37;;;1.30;;
3523;SDS011;1776;53.330;11.498;2023-02-28T09:59:00;3.70;;;1.77;;
3523;SDS011;1776;53.330;11.498;2023-02-28T10:01:45;1.40;;;1.30;;
3523;SDS011;1776;53.330;11.498;2023-02-28T10:04:28;1.83;;;1.60;;
3523;SDS011;1776;53.330;11.498;2023-02-28T10:07:15;1.80;;;1.43;;
3523;SDS011;1776;53.330;11.498;2023-02-28T10:10:01;2.90;;;1.30;;
3523;SDS011;1776;53.330;11.498;2023-02-28T10:12:33;1.23;;;1.13;;
3523;SDS011;1776;53.330;11.498;2023-02-28T10:15:03;2.40;;;1.43;;
3523;SDS011;1776;53.330;11.498;2023-02-28T10:17:36;1.40;;;1.17;;
3523;SDS011;1776;53.330;11.498;2023-02-28T10:20:06;1.90;;;1.40;;
3523;SDS011;1776;53.330;11.498;2023-02-28T10:22:40;4.93;;;1.40;;
3523;SDS011;1776;53.330;11.498;2023-02-28T10:25:19;1.87;;;1.13;;
3523;SDS011;1776;53.330;11.498;2023-02-28T10:27:46;1.43;;;1.23;;
3523;SDS011;1776;53.330;11.498;2023-02-28T10:30:11;1.63;;;1.33;;
3523;SDS011;1776;53.330;11.498;2023-02-28T10:32:39;4.80;;;1.60;;
3523;SDS011;1776;53.330;11.498;2023-02-28T10:35:21;4.03;;;1.60;;
3523;SDS011;1776;53.330;11.498;2023-02-28T10:37:50;5.10;;;1.70;;
3523;SDS011;1776;53.330;11.498;2023-02-28T10:42:59;7.00;;;2.10;;
3523;SDS011;1776;53.330;11.498;2023-02-28T10:45:26;2.33;;;1.43;;
3523;SDS011;1776;53.330;11.498;2023-02-28T10:47:59;1.90;;;1.27;;
3523;SDS011;1776;53.330;11.498;2023-02-28T10:50:30;1.93;;;1.40;;
3523;SDS011;1776;53.330;11.498;2023-02-28T10:53:03;2.63;;;2.17;;
3523;SDS011;1776;53.330;11.498;2023-02-28T10:55:33;2.27;;;1.90;;
3523;SDS011;1776;53.330;11.498;2023-02-28T10:57:59;2.50;;;2.10;;
3523;SDS011;1776;53.330;11.498;2023-02-28T11:00:24;2.53;;;1.73;;
3523;SDS011;1776;53.330;11.498;2023-02-28T11:02:56;3.60;;;1.70;;
3523;SDS011;1776;53.330;11.498;2023-02-28T11:05:29;2.83;;;1.60;;
3523;SDS011;1776;53.330;11.498;2023-02-28T11:07:59;2.73;;;1.30;;
3523;SDS011;1776;53.330;11.498;2023-02-28T11:10:30;2.17;;;1.67;;
3523;SDS011;1776;53.330;11.498;2023-02-28T11:12:59;2.70;;;2.07;;
3523;SDS011;1776;53.330;11.498;2023-02-28T11:15:29;1.57;;;1.33;;
3523;SDS011;1776;53.330;11.498;2023-02-28T11:17:58;2.80;;;1.83;;
3523;SDS011;1776;53.330;11.498;2023-02-28T11:20:28;4.10;;;2.60;;
3523;SDS011;1776;53.330;11.498;2023-02-28T11:22:55;3.87;;;2.20;;
3523;SDS011;1776;53.330;11.498;2023-02-28T11:25:26;6.97;;;2.70;;
3523;SDS011;1776;53.330;11.498;2023-02-28T11:28:00;3.23;;;1.90;;
3523;SDS011;1776;53.330;11.498;2023-02-28T11:30:28;1.70;;;1.60;;
3523;SDS011;1776;53.330;11.498;2023-02-28T11:32:56;2.10;;;1.90;;
3523;SDS011;1776;53.330;11.498;2023-02-28T11:35:27;2.63;;;1.63;;
3523;SDS011;1776;53.330;11.498;2023-02-28T11:37:55;4.47;;;2.10;;
3523;SDS011;1776;53.330;11.498;2023-02-28T11:40:26;1.90;;;1.50;;
3523;SDS011;1776;53.330;11.498;2023-02-28T11:48:40;4.70;;;1.97;;
3523;SDS011;1776;53.330;11.498;2023-02-28T11:51:15;1.93;;;1.80;;
3523;SDS011;1776;53.330;11.498;2023-02-28T11:56:53;2.63;;;1.60;;
3523;SDS011;1776;53.330;11.498;2023-02-28T12:02:23;1.80;;;1.27;;
3523;SDS011;1776;53.330;11.498;2023-02-28T12:07:37;4.30;;;2.10;;
3523;SDS011;1776;53.330;11.498;2023-02-28T12:10:26;5.20;;;1.80;;
3523;SDS011;1776;53.330;11.498;2023-02-28T12:15:38;1.27;;;1.17;;
3523;SDS011;1776;53.330;11.498;2023-02-28T12:18:10;3.13;;;1.70;;
3523;SDS011;1776;53.330;11.498;2023-02-28T12:26:54;6.57;;;1.63;;
3523;SDS011;1776;53.330;11.498;2023-02-28T12:29:26;3.00;;;1.70;;
3523;SDS011;1776;53.330;11.498;2023-02-28T12:31:56;6.03;;;1.60;;
3523;SDS011;1776;53.330;11.498;2023-02-28T12:34:31;2.53;;;1.80;;
3523;SDS011;1776;53.330;11.498;2023-02-28T12:37:00;2.27;;;1.50;;
3523;SDS011;1776;53.330;11.498;2023-02-28T12:39:32;1.60;;;1.30;;
3523;SDS011;1776;53.330;11.498;2023-02-28T12:42:05;3.70;;;1.77;;
3523;SDS011;1776;53.330;11.498;2023-02-28T12:44:52;1.47;;;1.23;;
3523;SDS011;1776;53.330;11.498;2023-02-28T12:47:42;1.83;;;1.30;;
3523;SDS011;1776;53.330;11.498;2023-02-28T12:50:10;2.20;;;1.50;;
3523;SDS011;1776;53.330;11.498;2023-02-28T12:55:35;1.77;;;1.50;;
3523;SDS011;1776;53.330;11.498;2023-02-28T12:58:14;3.23;;;1.67;;
3523;SDS011;1776;53.330;11.498;2023-02-28T13:04:04;4.90;;;1.70;;
3523;SDS011;1776;53.330;11.498;2023-02-28T13:06:52;2.40;;;1.57;;
3523;SDS011;1776;53.330;11.498;2023-02-28T13:09:31;2.70;;;1.90;;
3523;SDS011;1776;53.330;11.498;2023-02-28T13:11:56;2.87;;;1.80;;
3523;SDS011;1776;53.330;11.498;2023-02-28T13:14:28;3.97;;;1.97;;
3523;SDS011;1776;53.330;11.498;2023-02-28T13:19:35;4.90;;;2.37;;
3523;SDS011;1776;53.330;11.498;2023-02-28T13:22:03;2.97;;;1.77;;
3523;SDS011;1776;53.330;11.498;2023-02-28T13:42:22;1.83;;;1.70;;
3523;SDS011;1776;53.330;11.498;2023-02-28T13:47:28;2.00;;;1.73;;
3523;SDS011;1776;53.330;11.498;2023-02-28T13:50:15;6.83;;;2.20;;
3523;SDS011;1776;53.330;11.498;2023-02-28T14:04:16;2.70;;;1.70;;
3523;SDS011;1776;53.330;11.498;2023-02-28T14:07:15;4.00;;;1.97;;
3523;SDS011;1776;53.330;11.498;2023-02-28T14:09:46;4.13;;;2.17;;
3523;SDS011;1776;53.330;11.498;2023-02-28T14:15:34;4.73;;;1.80;;
3523;SDS011;1776;53.330;11.498;2023-02-28T14:18:18;3.03;;;2.10;;
3523;SDS011;1776;53.330;11.498;2023-02-28T14:20:47;3.97;;;1.60;;
3523;SDS011;1776;53.330;11.498;2023-02-28T14:31:57;2.43;;;1.30;;
3523;SDS011;1776;53.330;11.498;2023-02-28T14:34:43;1.93;;;1.73;;
3523;SDS011;1776;53.330;11.498;2023-02-28T14:37:19;2.07;;;1.77;;
3523;SDS011;1776;53.330;11.498;2023-02-28T14:39:50;2.83;;;1.40;;
3523;SDS011;1776;53.330;11.498;2023-02-28T14:42:34;3.67;;;2.03;;
3523;SDS011;1776;53.330;11.498;2023-02-28T14:45:03;2.03;;;1.33;;
3523;SDS011;1776;53.330;11.498;2023-02-28T14:47:32;1.93;;;1.37;;
3523;SDS011;1776;53.330;11.498;2023-02-28T14:50:00;1.73;;;1.40;;
3523;SDS011;1776;53.330;11.498;2023-02-28T14:52:29;2.40;;;1.63;;
3523;SDS011;1776;53.330;11.498;2023-02-28T14:54:57;3.10;;;2.77;;
3523;SDS011;1776;53.330;11.498;2023-02-28T14:57:32;2.20;;;1.40;;
3523;SDS011;1776;53.330;11.498;2023-02-28T15:00:00;2.20;;;1.40;;
3523;SDS011;1776;53.330;11.498;2023-02-28T15:02:36;5.17;;;1.57;;
3523;SDS011;1776;53.330;11.498;2023-02-28T15:07:34;4.67;;;1.70;;
3523;SDS011;1776;53.330;11.498;2023-02-28T15:10:06;1.10;;;1.00;;
3523;SDS011;1776;53.330;11.498;2023-02-28T15:12:36;1.57;;;1.30;;
3523;SDS011;1776;53.330;11.498;2023-02-28T15:15:03;2.20;;;2.00;;
3523;SDS011;1776;53.330;11.498;2023-02-28T15:17:28;3.17;;;1.47;;
3523;SDS011;1776;53.330;11.498;2023-02-28T15:19:54;2.27;;;1.40;;
3523;SDS011;1776;53.330;11.498;2023-02-28T15:22:27;1.60;;;1.40;;
3523;SDS011;1776;53.330;11.498;2023-02-28T15:24:59;4.17;;;1.60;;
3523;SDS011;1776;53.330;11.498;2023-02-28T15:27:25;3.50;;;1.50;;
3523;SDS011;1776;53.330;11.498;2023-02-28T15:29:54;1.63;;;1.13;;
3523;SDS011;1776;53.330;11.498;2023-02-28T15:32:35;1.87;;;1.37;;
3523;SDS011;1776;53.330;11.498;2023-02-28T15:38:03;2.13;;;1.30;;
3523;SDS011;1776;53.330;11.498;2023-02-28T15:40:43;18.27;;;11.40;;
3523;SDS011;1776;53.330;11.498;2023-02-28T15:43:22;38.13;;;23.77;;
3523;SDS011;1776;53.330;11.498;2023-02-28T15:48:21;6.07;;;3.93;;
3523;SDS011;1776;53.330;11.498;2023-02-28T15:50:51;4.90;;;3.10;;
3523;SDS011;1776;53.330;11.498;2023-02-28T15:53:23;3.70;;;3.37;;
3523;SDS011;1776;53.330;11.498;2023-02-28T15:55:52;3.97;;;3.37;;
3523;SDS011;1776;53.330;11.498;2023-02-28T15:58:20;3.43;;;2.80;;
3523;SDS011;1776;53.330;11.498;2023-02-28T16:00:59;10.50;;;2.90;;
3523;SDS011;1776;53.330;11.498;2023-02-28T16:03:45;4.93;;;4.43;;
3523;SDS011;1776;53.330;11.498;2023-02-28T16:08:41;8.77;;;6.43;;
3523;SDS011;1776;53.330;11.498;2023-02-28T16:11:08;4.27;;;3.33;;
3523;SDS011;1776;53.330;11.498;2023-02-28T16:13:34;5.53;;;3.83;;
3523;SDS011;1776;53.330;11.498;2023-02-28T16:16:00;5.37;;;3.27;;
3523;SDS011;1776;53.330;11.498;2023-02-28T16:18:26;5.67;;;3.50;;
3523;SDS011;1776;53.330;11.498;2023-02-28T16:20:51;5.33;;;3.70;;
3523;SDS011;1776;53.330;11.498;2023-02-28T16:23:17;6.87;;;5.13;;
3523;SDS011;1776;53.330;11.498;2023-02-28T16:25:42;10.13;;;6.40;;
3523;SDS011;1776;53.330;11.498;2023-02-28T16:28:18;6.47;;;5.07;;
3523;SDS011;1776;53.330;11.498;2023-02-28T16:30:47;10.67;;;5.00;;
3523;SDS011;1776;53.330;11.498;2023-02-28T16:33:12;10.57;;;5.77;;
3523;SDS011;1776;53.330;11.498;2023-02-28T16:35:37;11.30;;;6.60;;
3523;SDS011;1776;53.330;11.498;2023-02-28T16:38:03;15.60;;;5.83;;
3523;SDS011;1776;53.330;11.498;2023-02-28T16:40:28;9.80;;;5.40;;
3523;SDS011;1776;53.330;11.498;2023-02-28T16:42:59;8.60;;;5.10;;
3523;SDS011;1776;53.330;11.498;2023-02-28T16:45:26;8.40;;;4.20;;
3523;SDS011;1776;53.330;11.498;2023-02-28T16:47:53;4.90;;;3.27;;
3523;SDS011;1776;53.330;11.498;2023-02-28T16:50:20;7.40;;;4.37;;
3523;SDS011;1776;53.330;11.498;2023-02-28T16:52:50;9.60;;;3.70;;
3523;SDS011;1776;53.330;11.498;2023-02-28T16:55:19;5.07;;;3.20;;
3523;SDS011;1776;53.330;11.498;2023-02-28T16:57:47;7.23;;;2.60;;
3523;SDS011;1776;53.330;11.498;2023-02-28T17:00:19;6.60;;;3.33;;
3523;SDS011;1776;53.330;11.498;2023-02-28T17:02:44;10.87;;;4.10;;
3523;SDS011;1776;53.330;11.498;2023-02-28T17:05:12;11.80;;;4.30;;
3523;SDS011;1776;53.330;11.498;2023-02-28T17:07:39;9.30;;;3.77;;
3523;SDS011;1776;53.330;11.498;2023-02-28T17:10:16;6.57;;;4.27;;
3523;SDS011;1776;53.330;11.498;2023-02-28T17:12:46;7.60;;;4.83;;
3523;SDS011;1776;53.330;11.498;2023-02-28T17:15:13;10.20;;;5.43;;
3523;SDS011;1776;53.330;11.498;2023-02-28T17:17:39;12.97;;;6.00;;
3523;SDS011;1776;53.330;11.498;2023-02-28T17:20:06;10.00;;;6.47;;
3523;SDS011;1776;53.330;11.498;2023-02-28T17:22:36;13.97;;;6.10;;
3523;SDS011;1776;53.330;11.498;2023-02-28T17:25:01;11.63;;;6.83;;